Time;durP1;ratioP1;P1;durP2;ratioP2;P2;SDS_P1;SDS_P2;PMS_P1;PMS_P2;Temp;Humidity;BMP_temperature;BMP_pressure;BME280_temperature;BME280_humidity;BME280_pressure;Samples;Min_cycle;Max_cycle;Signal;HPM_P1;HPM_P2
2021/10/06 00:01:36;;;;;;;;;11.00;10.50;;;;;19.67;50.12;98290.19;4833584;28;104487;-89
2021/10/06 00:04:03;;;;;;;;;8.33;7.67;;;;;19.68;50.19;98299.25;4817817;28;104131;-89
2021/10/06 00:06:30;;;;;;;;;9.33;9.33;;;;;19.67;50.20;98295.69;4836667;28;102261;-89
2021/10/06 00:08:57;;;;;;;;;8.00;7.33;;;;;19.66;49.70;98291.28;4794350;28;102150;-89
2021/10/06 00:11:25;;;;;;;;;9.67;9.67;;;;;19.66;49.69;98309.66;4824890;28;102439;-89
2021/10/06 00:13:52;;;;;;;;;8.33;8.33;;;;;19.65;50.36;98306.06;4829112;28;104419;-89
2021/10/06 00:16:20;;;;;;;;;9.67;9.67;;;;;19.64;49.92;98307.16;4835318;28;102649;-89
2021/10/06 00:18:47;;;;;;;;;10.33;9.33;;;;;19.66;50.24;98309.66;4842979;28;105170;-89
2021/10/06 00:21:14;;;;;;;;;9.00;9.00;;;;;19.64;50.06;98306.34;4833170;28;102413;-89
2021/10/06 00:23:41;;;;;;;;;10.00;9.33;;;;;19.64;50.00;98287.13;4819805;28;104999;-89
2021/10/06 00:26:08;;;;;;;;;10.00;9.67;;;;;19.63;50.01;98296.47;4842233;28;102501;-89
2021/10/06 00:28:35;;;;;;;;;9.33;9.33;;;;;19.64;49.85;98289.88;4833217;28;102347;-89
2021/10/06 00:31:02;;;;;;;;;11.33;9.67;;;;;19.63;50.31;98286.34;4822261;28;105815;-89
2021/10/06 00:33:29;;;;;;;;;8.00;8.00;;;;;19.63;50.12;98280.03;4833328;28;104086;-89
2021/10/06 00:35:56;;;;;;;;;8.00;8.00;;;;;19.63;50.03;98291.81;4829345;28;102513;-89
2021/10/06 00:38:24;;;;;;;;;8.00;8.00;;;;;19.64;49.89;98303.59;4840529;28;102185;-89
2021/10/06 00:40:51;;;;;;;;;9.00;9.00;;;;;19.62;49.43;98301.13;4824124;28;102620;-88
2021/10/06 00:43:18;;;;;;;;;10.00;8.67;;;;;19.61;49.79;98288.50;4840436;28;104231;-88
2021/10/06 00:45:45;;;;;;;;;12.33;9.00;;;;;19.60;49.89;98298.66;4847805;28;103375;-90
2021/10/06 00:48:12;;;;;;;;;11.00;9.00;;;;;19.59;49.33;98291.50;4839985;28;102599;-89
2021/10/06 00:50:39;;;;;;;;;8.00;8.00;;;;;19.59;49.64;98293.41;4839498;28;102327;-89
2021/10/06 00:53:06;;;;;;;;;13.00;10.00;;;;;19.59;49.40;98291.50;4820139;28;105924;-89
2021/10/06 00:55:33;;;;;;;;;9.00;9.00;;;;;19.59;49.98;98299.72;4836690;28;105684;-89
2021/10/06 00:58:00;;;;;;;;;9.67;8.33;;;;;19.58;49.37;98303.59;4839962;28;102550;-89
2021/10/06 01:00:27;;;;;;;;;8.00;7.33;;;;;19.58;49.98;98294.53;4834234;28;109010;-89
2021/10/06 01:02:54;;;;;;;;;9.33;8.00;;;;;19.57;49.72;98299.19;4804909;28;104112;-89
2021/10/06 01:05:22;;;;;;;;;9.67;9.33;;;;;19.58;49.47;98306.34;4787045;28;102810;-89
2021/10/06 01:07:49;;;;;;;;;12.67;9.00;;;;;19.56;49.68;98305.75;4793507;28;102568;-89
2021/10/06 01:10:16;;;;;;;;;11.00;10.00;;;;;19.58;49.91;98311.00;4806571;28;102310;-89
2021/10/06 01:12:43;;;;;;;;;11.00;9.00;;;;;19.57;49.86;98309.34;4833704;28;104329;-89
2021/10/06 01:15:11;;;;;;;;;8.00;7.33;;;;;19.57;49.76;98312.91;4836781;28;102547;-89
2021/10/06 01:17:39;;;;;;;;;11.00;9.00;;;;;19.54;49.51;98321.63;4840227;28;102473;-89
2021/10/06 01:20:07;;;;;;;;;6.67;6.00;;;;;19.56;49.55;98316.72;4830945;28;102574;-89
2021/10/06 01:22:34;;;;;;;;;9.33;9.00;;;;;19.55;49.44;98317.81;4831697;28;104276;-89
2021/10/06 01:25:04;;;;;;;;;7.67;7.67;;;;;19.54;49.27;98318.91;4831871;28;103861;-89
2021/10/06 01:27:32;;;;;;;;;10.00;9.00;;;;;19.56;49.40;98315.91;4835589;28;102096;-89
2021/10/06 01:29:59;;;;;;;;;9.67;8.00;;;;;19.55;49.70;98316.97;4798749;28;103325;-89
2021/10/06 01:32:26;;;;;;;;;10.00;9.33;;;;;19.55;49.67;98327.97;4829136;28;104278;-89
2021/10/06 01:34:58;;;;;;;;;10.67;9.00;;;;;19.54;49.47;98320.84;4840226;28;103704;-88
2021/10/06 01:37:25;;;;;;;;;8.00;7.33;;;;;19.52;49.44;98329.31;4830763;28;105014;-89
2021/10/06 01:39:52;;;;;;;;;10.33;10.00;;;;;19.54;49.35;98332.63;4831187;28;102597;-89
2021/10/06 01:42:20;;;;;;;;;9.00;9.00;;;;;19.53;49.60;98320.00;4844685;28;104118;-89
2021/10/06 01:44:47;;;;;;;;;7.33;6.33;;;;;19.54;49.42;98315.34;4831959;28;102204;-89
2021/10/06 01:47:21;;;;;;;;;8.67;8.67;;;;;19.53;49.31;98317.28;4812110;28;104191;-89
2021/10/06 01:49:48;;;;;;;;;8.33;8.33;;;;;19.54;49.40;98329.06;4840162;28;102420;-89
2021/10/06 01:52:17;;;;;;;;;9.67;9.00;;;;;19.54;49.25;98331.81;4812767;28;104297;-89
2021/10/06 01:54:44;;;;;;;;;10.67;10.33;;;;;19.54;49.35;98340.84;4836077;28;102738;-89
2021/10/06 01:57:11;;;;;;;;;7.00;7.00;;;;;19.53;49.44;98330.97;4837345;28;102825;-89
2021/10/06 01:59:41;;;;;;;;;10.67;9.67;;;;;19.52;49.20;98323.84;4826435;28;104691;-89
2021/10/06 02:02:08;;;;;;;;;9.00;8.67;;;;;19.53;49.03;98321.94;4819816;28;105931;-89
2021/10/06 02:04:35;;;;;;;;;9.67;8.00;;;;;19.51;49.37;98315.88;4837586;28;105091;-89
2021/10/06 02:07:02;;;;;;;;;8.33;8.00;;;;;19.52;49.37;98326.59;4821968;28;102548;-89
2021/10/06 02:09:29;;;;;;;;;7.33;7.33;;;;;19.51;49.32;98333.16;4828571;28;102767;-89
2021/10/06 02:11:56;;;;;;;;;10.67;10.00;;;;;19.52;49.64;98334.81;4830466;28;103990;-89
2021/10/06 02:14:23;;;;;;;;;8.67;8.67;;;;;19.52;49.75;98329.31;4829675;28;102807;-89
2021/10/06 02:16:50;;;;;;;;;9.00;8.00;;;;;19.51;49.89;98327.66;4842986;28;102264;-89
2021/10/06 02:19:17;;;;;;;;;8.00;7.00;;;;;19.51;49.75;98332.31;4835796;28;102644;-89
2021/10/06 02:21:44;;;;;;;;;9.33;9.00;;;;;19.51;49.75;98326.84;4815006;28;104073;-89
2021/10/06 02:24:11;;;;;;;;;8.67;7.67;;;;;19.50;49.71;98336.97;4837268;28;102153;-89
2021/10/06 02:26:38;;;;;;;;;9.00;8.00;;;;;19.51;49.71;98338.63;4832852;28;104155;-89
2021/10/06 02:29:05;;;;;;;;;8.33;7.67;;;;;19.52;49.74;98336.72;4828553;28;103341;-89
2021/10/06 02:31:32;;;;;;;;;8.00;6.00;;;;;19.51;49.81;98340.56;4840161;28;104719;-89
2021/10/06 02:33:59;;;;;;;;;7.33;6.67;;;;;19.51;49.95;98337.81;4828432;28;102670;-89
2021/10/06 02:36:26;;;;;;;;;8.00;8.00;;;;;19.50;50.00;98331.50;4842676;28;102485;-89
2021/10/06 02:38:53;;;;;;;;;9.00;7.33;;;;;19.48;50.07;98322.72;4838003;28;103753;-89
2021/10/06 02:41:20;;;;;;;;;10.00;9.00;;;;;19.51;49.36;98332.31;4829502;28;104100;-89
2021/10/06 02:43:47;;;;;;;;;11.00;9.00;;;;;19.50;50.24;98336.16;4836612;28;103193;-89
2021/10/06 02:46:14;;;;;;;;;8.67;8.67;;;;;19.49;50.09;98335.34;4832670;28;102140;-89
2021/10/06 02:48:41;;;;;;;;;8.00;8.00;;;;;19.49;50.19;98340.84;4828189;28;102577;-89
2021/10/06 02:51:08;;;;;;;;;9.00;8.00;;;;;19.48;50.16;98347.41;4822369;28;105411;-89
2021/10/06 02:53:35;;;;;;;;;8.00;8.00;;;;;19.48;50.26;98341.91;4841636;28;102747;-89
2021/10/06 02:56:02;;;;;;;;;9.00;8.00;;;;;19.48;50.21;98341.91;4835468;28;103736;-89
2021/10/06 02:58:29;;;;;;;;;8.00;8.00;;;;;19.48;49.89;98344.66;4834481;28;102689;-90
2021/10/06 03:00:56;;;;;;;;;8.00;8.00;;;;;19.49;50.10;98349.06;4824768;28;104050;-88
2021/10/06 03:03:23;;;;;;;;;8.00;7.00;;;;;19.48;50.01;98350.16;4832142;28;102950;-89
2021/10/06 03:05:50;;;;;;;;;8.67;7.00;;;;;19.50;49.89;98353.44;4844846;28;103351;-89
2021/10/06 03:08:17;;;;;;;;;8.33;7.67;;;;;19.48;50.09;98349.31;4836276;28;102636;-89
2021/10/06 03:10:44;;;;;;;;;7.67;7.33;;;;;19.46;50.06;98341.34;4840531;28;103911;-89
2021/10/06 03:13:11;;;;;;;;;8.33;8.00;;;;;19.47;49.92;98343.00;4832604;28;102602;-89
2021/10/06 03:15:38;;;;;;;;;10.00;9.00;;;;;19.46;50.15;98346.84;4835502;28;111293;-89
2021/10/06 03:18:05;;;;;;;;;8.67;7.67;;;;;19.46;49.77;98346.00;4840412;28;102250;-89
2021/10/06 03:20:32;;;;;;;;;8.33;8.33;;;;;19.46;49.94;98348.75;4850807;28;104244;-89
2021/10/06 03:23:02;;;;;;;;;9.67;9.00;;;;;19.48;50.08;98355.63;4857918;28;102799;-88
2021/10/06 03:25:29;;;;;;;;;6.00;6.00;;;;;19.51;49.96;98352.34;4856093;28;105358;-87
2021/10/06 03:27:56;;;;;;;;;11.33;8.00;;;;;19.51;50.21;98348.78;4854488;28;102734;-87
2021/10/06 03:30:23;;;;;;;;;3.00;3.00;;;;;19.48;49.84;98360.28;4857364;28;104416;-87
2021/10/06 03:32:50;;;;;;;;;10.00;9.00;;;;;19.49;50.02;98362.78;4858700;28;102383;-87
2021/10/06 03:35:18;;;;;;;;;8.67;8.00;;;;;19.49;50.06;98359.19;4854475;28;102532;-87
2021/10/06 03:37:46;;;;;;;;;6.00;5.67;;;;;19.48;50.06;98363.84;4824663;28;102866;-87
2021/10/06 03:40:13;;;;;;;;;7.33;7.33;;;;;19.48;50.22;98366.59;4865730;28;103972;-87
2021/10/06 03:42:40;;;;;;;;;8.67;8.33;;;;;19.47;50.23;98369.59;4853654;28;102475;-87
2021/10/06 03:45:08;;;;;;;;;8.67;8.33;;;;;19.47;50.12;98361.38;4852321;28;103690;-87
2021/10/06 03:47:35;;;;;;;;;7.67;6.33;;;;;19.46;49.97;98363.28;4861176;28;102623;-87
2021/10/06 03:50:04;;;;;;;;;8.00;7.67;;;;;19.46;49.99;98377.00;4858305;28;103751;-87
2021/10/06 03:52:31;;;;;;;;;8.67;8.33;;;;;19.45;49.94;98375.34;4859520;28;102025;-87
2021/10/06 03:54:58;;;;;;;;;7.00;7.00;;;;;19.44;50.10;98370.97;4850780;28;102470;-87
2021/10/06 03:57:25;;;;;;;;;8.33;8.33;;;;;19.43;49.76;98380.28;4843470;28;104510;-87
2021/10/06 03:59:52;;;;;;;;;8.00;7.67;;;;;19.42;50.06;98375.84;4861782;28;104044;-87
2021/10/06 04:02:18;;;;;;;;;6.33;5.33;;;;;19.42;49.84;98377.75;4834303;28;102295;-87
2021/10/06 04:04:46;;;;;;;;;10.00;8.00;;;;;19.43;50.14;98384.91;4851522;28;102628;-87
2021/10/06 04:07:12;;;;;;;;;8.00;8.00;;;;;19.43;50.02;98383.03;4865459;28;103271;-87
2021/10/06 04:09:40;;;;;;;;;8.00;8.00;;;;;19.42;49.96;98377.75;4864378;28;109049;-87
2021/10/06 04:12:06;;;;;;;;;7.00;6.67;;;;;19.42;49.87;98378.59;4853196;28;103690;-87
2021/10/06 04:14:33;;;;;;;;;9.67;8.33;;;;;19.41;50.16;98387.88;4858588;28;103668;-88
2021/10/06 04:17:00;;;;;;;;;8.00;8.00;;;;;19.40;49.94;98382.69;4863133;28;102306;-87
2021/10/06 04:19:27;;;;;;;;;9.67;9.00;;;;;19.40;50.20;98385.44;4854785;28;104025;-88
2021/10/06 04:21:54;;;;;;;;;7.00;6.00;;;;;19.41;50.23;98387.88;4868045;28;104296;-88
2021/10/06 04:24:21;;;;;;;;;7.33;6.33;;;;;19.40;50.35;98399.97;4859276;28;103813;-87
2021/10/06 04:26:48;;;;;;;;;7.67;7.67;;;;;19.40;49.94;98391.75;4857083;28;102738;-87
2021/10/06 04:29:15;;;;;;;;;7.00;7.00;;;;;19.40;50.15;98390.91;4859296;28;104166;-87
2021/10/06 04:31:42;;;;;;;;;7.33;7.33;;;;;19.41;50.24;98404.34;4856701;28;102387;-88
2021/10/06 04:34:09;;;;;;;;;9.00;8.00;;;;;19.39;50.08;98412.03;4855364;28;104318;-88
2021/10/06 04:36:36;;;;;;;;;7.67;7.67;;;;;19.37;50.10;98403.22;4861429;28;102454;-88
2021/10/06 04:39:03;;;;;;;;;7.67;7.67;;;;;19.36;50.36;98407.03;4855796;28;104082;-88
2021/10/06 04:41:30;;;;;;;;;8.67;8.00;;;;;19.38;50.35;98410.38;4862344;28;102673;-87
2021/10/06 04:43:58;;;;;;;;;7.33;7.00;;;;;19.38;50.44;98409.53;4834478;28;102816;-87
2021/10/06 04:46:25;;;;;;;;;7.67;7.67;;;;;19.40;50.27;98421.09;4857892;28;102660;-87
2021/10/06 04:48:52;;;;;;;;;9.00;7.00;;;;;19.38;50.30;98431.47;4866581;28;104160;-88
2021/10/06 04:51:19;;;;;;;;;9.00;8.00;;;;;19.38;50.38;98432.31;4853841;28;103543;-87
2021/10/06 04:53:46;;;;;;;;;8.33;7.00;;;;;19.38;50.09;98436.94;4848333;28;102558;-87
2021/10/06 04:56:13;;;;;;;;;7.33;6.33;;;;;19.35;50.45;98432.84;4855173;28;103828;-88
2021/10/06 04:58:40;;;;;;;;;6.33;6.33;;;;;19.34;50.58;98442.13;4857102;28;104104;-88
2021/10/06 05:01:07;;;;;;;;;8.00;8.00;;;;;19.35;50.10;98432.84;4853445;28;103490;-87
2021/10/06 05:03:35;;;;;;;;;9.67;8.33;;;;;19.33;50.14;98440.47;4855002;28;102711;-88
2021/10/06 05:06:02;;;;;;;;;8.33;8.00;;;;;19.32;50.11;98449.78;4855209;28;102199;-88
2021/10/06 05:08:29;;;;;;;;;7.00;7.00;;;;;19.33;50.27;98440.47;4855736;28;104073;-87
2021/10/06 05:10:55;;;;;;;;;7.67;7.33;;;;;19.34;50.59;98446.78;4858050;28;102828;-87
2021/10/06 05:13:22;;;;;;;;;8.00;8.00;;;;;19.32;50.44;98443.47;4868428;28;103658;-88
2021/10/06 05:15:49;;;;;;;;;9.00;7.67;;;;;19.33;50.33;98443.22;4855504;28;102741;-88
2021/10/06 05:18:16;;;;;;;;;7.67;7.00;;;;;19.33;50.45;98440.47;4857619;28;104164;-88
2021/10/06 05:20:43;;;;;;;;;7.00;7.00;;;;;19.34;50.47;98450.38;4864782;28;103641;-88
2021/10/06 05:23:10;;;;;;;;;7.00;6.00;;;;;19.34;50.60;98442.13;4860182;28;103932;-88
2021/10/06 05:25:37;;;;;;;;;8.00;6.67;;;;;19.34;50.47;98450.38;4862202;28;103133;-88
2021/10/06 05:28:04;;;;;;;;;9.00;8.00;;;;;19.31;50.16;98434.44;4860513;28;104829;-88
2021/10/06 05:30:31;;;;;;;;;8.00;8.00;;;;;19.33;50.51;98451.44;4857196;28;103274;-88
2021/10/06 05:32:58;;;;;;;;;8.67;8.33;;;;;19.31;50.49;98445.41;4860707;28;103477;-88
2021/10/06 05:35:26;;;;;;;;;11.33;10.00;;;;;19.31;50.66;98448.16;4865388;28;102662;-87
2021/10/06 05:38:23;;;;;;;;;7.67;7.67;;;;;19.31;50.60;98452.81;4858188;28;104269;-88
2021/10/06 05:40:51;;;;;;;;;9.00;8.33;;;;;19.28;50.52;98456.88;4804122;28;102715;-88
2021/10/06 05:43:18;;;;;;;;;7.33;7.33;;;;;19.30;50.38;98460.19;4862025;28;102370;-88
2021/10/06 05:45:45;;;;;;;;;9.33;8.00;;;;;19.27;50.64;98460.72;4864347;28;108489;-88
2021/10/06 05:48:13;;;;;;;;;8.00;7.00;;;;;19.27;50.62;98468.97;4856280;28;104060;-88
2021/10/06 05:50:40;;;;;;;;;10.33;8.00;;;;;19.27;50.67;98477.19;4863124;28;102565;-88
2021/10/06 05:53:07;;;;;;;;;7.00;7.00;;;;;19.26;50.35;98478.25;4857374;28;102361;-88
2021/10/06 05:55:34;;;;;;;;;6.67;6.67;;;;;19.29;50.62;98488.69;4859030;28;102579;-88
2021/10/06 05:58:01;;;;;;;;;9.00;8.00;;;;;19.29;50.63;98487.88;4859598;28;104899;-88
2021/10/06 06:00:28;;;;;;;;;7.00;7.00;;;;;19.30;50.90;98489.53;4857580;28;102452;-88
2021/10/06 06:02:55;;;;;;;;;8.00;8.00;;;;;19.29;50.73;98494.19;4858641;28;102172;-88
2021/10/06 06:05:23;;;;;;;;;10.33;8.00;;;;;19.29;50.50;98494.19;4854014;28;102649;-87
2021/10/06 06:07:53;;;;;;;;;8.33;7.33;;;;;19.27;50.91;98501.84;4852536;28;108790;-88
2021/10/06 06:10:20;;;;;;;;;10.00;8.67;;;;;19.28;50.83;98498.00;4849704;28;102620;-88
2021/10/06 06:12:47;;;;;;;;;8.00;8.00;;;;;19.27;50.58;98503.78;4856170;28;102565;-88
2021/10/06 06:15:14;;;;;;;;;9.00;8.00;;;;;19.25;50.65;98509.50;4848716;28;102821;-87
2021/10/06 06:17:41;;;;;;;;;8.00;7.67;;;;;19.24;50.82;98513.31;4856996;28;110998;-88
2021/10/06 06:20:10;;;;;;;;;9.67;8.67;;;;;19.24;50.73;98518.81;4857803;28;103353;-87
2021/10/06 06:22:37;;;;;;;;;8.00;7.33;;;;;19.23;50.75;98517.13;4851484;28;103110;-87
2021/10/06 06:25:05;;;;;;;;;9.00;8.33;;;;;19.23;50.85;98511.66;4853748;28;102551;-87
2021/10/06 06:27:32;;;;;;;;;10.33;10.00;;;;;19.22;50.74;98510.03;4853505;28;105867;-87
2021/10/06 06:29:59;;;;;;;;;9.33;8.67;;;;;19.25;50.52;98508.66;4845581;28;102265;-87
2021/10/06 06:32:25;;;;;;;;;7.67;7.33;;;;;19.26;50.71;98513.06;4871418;28;102321;-88
2021/10/06 06:34:53;;;;;;;;;9.67;8.00;;;;;19.27;50.66;98514.72;4857230;28;102651;-87
2021/10/06 06:37:20;;;;;;;;;8.00;7.00;;;;;19.27;50.83;98506.50;4856669;28;103714;-88
2021/10/06 06:39:46;;;;;;;;;6.33;6.00;;;;;19.26;50.86;98508.41;4858912;28;102114;-87
2021/10/06 06:42:16;;;;;;;;;8.00;8.00;;;;;19.26;50.90;98513.91;4854897;28;102329;-87
2021/10/06 06:44:42;;;;;;;;;8.33;8.00;;;;;19.24;50.78;98518.81;4853335;28;102638;-87
2021/10/06 06:47:09;;;;;;;;;9.00;8.00;;;;;19.22;51.15;98515.50;4856519;28;104178;-88
2021/10/06 06:49:36;;;;;;;;;9.00;9.00;;;;;19.23;51.10;98522.63;4857017;28;102566;-87
2021/10/06 06:52:04;;;;;;;;;8.00;8.00;;;;;19.22;50.96;98526.47;4853481;28;102253;-87
2021/10/06 06:54:31;;;;;;;;;11.00;10.00;;;;;19.22;50.71;98531.97;4858852;28;102731;-87
2021/10/06 06:56:57;;;;;;;;;9.67;9.67;;;;;19.21;50.90;98532.22;4846822;28;104209;-87
2021/10/06 06:59:24;;;;;;;;;8.00;7.00;;;;;19.21;51.24;98529.47;4845910;28;102502;-88
2021/10/06 07:01:53;;;;;;;;;8.00;8.00;;;;;19.23;51.04;98544.56;4860632;28;102641;-87
2021/10/06 07:04:20;;;;;;;;;7.33;6.67;;;;;19.21;51.02;98540.44;4857331;28;102647;-88
2021/10/06 07:06:47;;;;;;;;;8.00;8.00;;;;;19.22;51.32;98544.84;4859939;28;104047;-87
2021/10/06 07:09:18;;;;;;;;;9.33;8.67;;;;;19.25;51.16;98549.78;4862399;28;102414;-88
2021/10/06 07:11:45;;;;;;;;;9.33;9.00;;;;;19.24;51.20;98551.69;4859201;28;102493;-88
2021/10/06 07:14:13;;;;;;;;;9.00;8.67;;;;;19.25;51.16;98556.09;4870392;28;102284;-88
2021/10/06 07:16:40;;;;;;;;;9.67;9.00;;;;;19.25;51.16;98567.06;4856879;28;104120;-88
2021/10/06 07:19:07;;;;;;;;;10.67;8.67;;;;;19.26;51.69;98557.78;4862796;28;105246;-88
2021/10/06 07:21:34;;;;;;;;;8.67;8.67;;;;;19.24;51.23;98568.16;4867241;28;104062;-88
2021/10/06 07:24:01;;;;;;;;;10.00;9.00;;;;;19.21;51.04;98574.16;4857261;28;102609;-88
2021/10/06 07:26:28;;;;;;;;;9.00;8.67;;;;;19.22;51.43;98570.34;4863350;28;104170;-88
2021/10/06 07:28:55;;;;;;;;;8.33;8.33;;;;;19.22;51.41;98575.81;4872122;28;102442;-88
2021/10/06 07:31:22;;;;;;;;;8.33;7.00;;;;;19.21;51.75;98574.16;4860022;28;102370;-88
2021/10/06 07:33:50;;;;;;;;;11.00;10.00;;;;;19.21;51.74;98574.16;4860702;28;102567;-88
2021/10/06 07:36:17;;;;;;;;;8.33;8.00;;;;;19.23;51.58;98582.13;4862360;28;104276;-88
2021/10/06 07:38:44;;;;;;;;;7.67;7.00;;;;;19.21;51.67;98595.25;4853037;28;102766;-88
2021/10/06 07:41:11;;;;;;;;;9.33;8.33;;;;;19.23;51.67;98593.09;4858517;28;102736;-87
2021/10/06 07:43:38;;;;;;;;;10.67;9.33;;;;;19.23;51.64;98601.31;4866300;28;102565;-87
2021/10/06 07:46:05;;;;;;;;;8.00;8.00;;;;;19.24;51.70;98598.31;4856301;28;104199;-87
2021/10/06 07:48:32;;;;;;;;;8.67;7.67;;;;;19.25;51.79;98601.88;4854776;28;102339;-87
2021/10/06 07:50:59;;;;;;;;;8.00;7.00;;;;;19.25;51.73;98596.41;4856198;28;103425;-87
2021/10/06 07:53:26;;;;;;;;;10.00;9.00;;;;;19.25;51.20;98597.22;4857145;28;103769;-88
2021/10/06 07:55:53;;;;;;;;;9.00;9.00;;;;;19.24;51.91;98601.06;4852275;28;108920;-87
2021/10/06 07:58:20;;;;;;;;;9.00;8.00;;;;;19.24;51.94;98601.06;4847577;28;102378;-87
2021/10/06 08:00:47;;;;;;;;;8.33;7.33;;;;;19.24;51.74;98601.06;4855476;28;102617;-88
2021/10/06 08:03:14;;;;;;;;;8.67;8.67;;;;;19.23;51.95;98607.59;4861447;28;102170;-88
2021/10/06 08:05:41;;;;;;;;;10.00;9.00;;;;;19.23;51.96;98601.31;4841064;28;104087;-87
2021/10/06 08:08:08;;;;;;;;;8.33;8.33;;;;;19.23;52.00;98602.13;4852825;28;104927;-88
2021/10/06 08:10:35;;;;;;;;;8.33;7.67;;;;;19.23;51.95;98599.38;4861842;28;102198;-87
2021/10/06 08:13:03;;;;;;;;;9.67;9.00;;;;;19.23;52.36;98598.59;4851534;28;102637;-87
2021/10/06 08:15:32;;;;;;;;;9.67;8.00;;;;;19.24;52.02;98608.44;4856853;28;104287;-88
2021/10/06 08:17:59;;;;;;;;;9.00;8.00;;;;;19.23;52.05;98615.03;4866456;28;111194;-88
2021/10/06 08:20:27;;;;;;;;;11.33;10.00;;;;;19.22;52.31;98608.72;4857873;28;102574;-88
2021/10/06 08:22:54;;;;;;;;;9.67;8.33;;;;;19.25;52.07;98616.41;4855708;28;102615;-87
2021/10/06 08:25:21;;;;;;;;;8.67;8.00;;;;;19.24;51.81;98614.75;4856346;28;104424;-88
2021/10/06 08:27:48;;;;;;;;;9.00;7.33;;;;;19.24;52.17;98617.50;4854780;28;102530;-88
2021/10/06 08:30:15;;;;;;;;;9.67;9.67;;;;;19.25;52.26;98621.06;4855170;28;102563;-88
2021/10/06 08:32:42;;;;;;;;;13.00;9.33;;;;;19.25;52.48;98627.38;4853300;28;103956;-87
2021/10/06 08:35:09;;;;;;;;;10.00;9.00;;;;;19.24;52.18;98617.50;4855874;28;104310;-88
2021/10/06 08:37:36;;;;;;;;;9.33;9.00;;;;;19.24;52.35;98625.72;4840425;28;104015;-87
2021/10/06 08:40:04;;;;;;;;;9.67;9.67;;;;;19.23;52.29;98623.25;4849803;28;102502;-87
2021/10/06 08:42:32;;;;;;;;;9.67;9.33;;;;;19.24;52.50;98622.97;4838630;28;102329;-87
2021/10/06 08:45:06;;;;;;;;;9.00;9.00;;;;;19.22;52.68;98627.91;4842404;28;104309;-87
2021/10/06 08:47:38;;;;;;;;;7.67;7.00;;;;;19.23;52.39;98615.84;4859386;28;103606;-88
2021/10/06 08:50:06;;;;;;;;;9.33;9.33;;;;;19.23;52.74;98626.00;4848310;28;111294;-87
2021/10/06 08:52:33;;;;;;;;;12.33;10.67;;;;;19.23;52.66;98631.47;4855183;28;103236;-88
2021/10/06 08:55:01;;;;;;;;;10.33;9.67;;;;;19.23;52.75;98621.31;4852650;28;104023;-87
2021/10/06 08:57:28;;;;;;;;;9.67;9.33;;;;;19.25;52.42;98618.34;4847437;28;102476;-88
2021/10/06 08:59:55;;;;;;;;;8.33;8.00;;;;;19.24;52.63;98622.97;4852202;28;105602;-88
2021/10/06 09:02:22;;;;;;;;;9.67;9.00;;;;;19.25;52.50;98621.91;4840706;28;103795;-87
2021/10/06 09:04:49;;;;;;;;;9.33;8.00;;;;;19.27;52.58;98625.22;4845642;28;104126;-87
2021/10/06 09:07:16;;;;;;;;;9.67;9.00;;;;;19.27;52.75;98627.16;4854046;28;102334;-87
2021/10/06 09:09:43;;;;;;;;;9.67;9.00;;;;;19.27;52.60;98624.41;4860481;28;102623;-87
2021/10/06 09:12:15;;;;;;;;;8.00;7.00;;;;;19.25;52.98;98626.56;4831806;28;104399;-87
2021/10/06 09:14:45;;;;;;;;;10.67;9.67;;;;;19.26;52.83;98630.97;4862147;28;104298;-88
2021/10/06 09:17:14;;;;;;;;;9.00;8.33;;;;;19.25;52.73;98632.88;4851323;28;104900;-87
2021/10/06 09:19:43;;;;;;;;;8.00;8.00;;;;;19.27;52.78;98633.47;4857849;28;102247;-87
2021/10/06 09:22:18;;;;;;;;;9.33;9.00;;;;;19.25;52.70;98635.63;4849721;28;102496;-87
2021/10/06 09:24:58;;;;;;;;;10.00;9.33;;;;;19.27;53.08;98638.09;4857977;28;102711;-87
2021/10/06 09:27:31;;;;;;;;;10.00;8.00;;;;;19.25;52.92;98638.34;4846302;28;102604;-87
2021/10/06 09:30:01;;;;;;;;;10.00;9.67;;;;;19.25;52.89;98643.84;4843715;28;102737;-87
2021/10/06 09:32:34;;;;;;;;;10.33;9.00;;;;;19.27;52.88;98649.06;4852262;28;102430;-88
2021/10/06 09:35:16;;;;;;;;;8.00;8.00;;;;;19.27;52.68;98644.41;4850500;28;108812;-88
2021/10/06 09:37:45;;;;;;;;;11.00;9.67;;;;;19.26;52.91;98647.41;4854187;28;103725;-87
2021/10/06 09:40:13;;;;;;;;;8.33;8.00;;;;;19.28;52.86;98657.03;4851512;28;102556;-87
2021/10/06 09:42:48;;;;;;;;;10.33;9.33;;;;;19.27;53.13;98647.16;4844739;28;102740;-87
2021/10/06 09:45:35;;;;;;;;;10.00;10.00;;;;;19.27;52.91;98654.56;4854226;28;104052;-87
2021/10/06 09:48:13;;;;;;;;;10.33;10.33;;;;;19.28;52.90;98657.03;4858768;28;104796;-87
2021/10/06 09:50:47;;;;;;;;;9.67;8.00;;;;;19.26;53.09;98656.47;4853201;28;102572;-87
2021/10/06 09:53:20;;;;;;;;;9.67;9.67;;;;;19.26;53.17;98663.84;4851069;28;102569;-87
2021/10/06 09:55:51;;;;;;;;;10.67;9.33;;;;;19.24;53.44;98658.63;4859994;28;104305;-87
2021/10/06 09:58:19;;;;;;;;;10.67;9.00;;;;;19.25;53.22;98660.28;4857325;28;102458;-87
2021/10/06 10:00:47;;;;;;;;;10.33;10.00;;;;;19.25;53.16;98663.03;4856871;28;103145;-87
2021/10/06 10:03:14;;;;;;;;;8.00;7.00;;;;;19.24;53.15;98660.53;4846501;28;103137;-87
2021/10/06 10:05:41;;;;;;;;;9.67;8.67;;;;;19.25;53.46;98662.19;4838597;28;103827;-87
2021/10/06 10:08:08;;;;;;;;;10.67;10.67;;;;;19.25;53.12;98663.03;4856919;28;102514;-87
2021/10/06 10:10:36;;;;;;;;;7.67;7.67;;;;;19.26;53.04;98661.94;4858415;28;102593;-87
2021/10/06 10:13:03;;;;;;;;;8.67;8.67;;;;;19.25;52.99;98668.50;4860167;28;103930;-87
2021/10/06 10:15:30;;;;;;;;;9.00;9.00;;;;;19.26;53.06;98683.88;4857129;28;104033;-87
2021/10/06 10:18:03;;;;;;;;;8.67;8.67;;;;;19.28;53.22;98669.91;4843024;28;102483;-87
2021/10/06 10:20:32;;;;;;;;;10.00;10.00;;;;;19.29;53.45;98666.91;4836386;28;102586;-87
2021/10/06 10:23:01;;;;;;;;;11.33;10.33;;;;;19.28;53.31;98670.72;4833266;28;102674;-87
2021/10/06 10:25:38;;;;;;;;;11.33;9.67;;;;;19.28;53.38;98672.63;4843188;28;108947;-87
2021/10/06 10:28:18;;;;;;;;;8.00;8.00;;;;;19.27;53.35;98669.09;4836375;28;102786;-87
2021/10/06 10:30:53;;;;;;;;;9.33;9.33;;;;;19.26;53.39;98674.81;4832725;28;102486;-87
2021/10/06 10:33:47;;;;;;;;;13.00;10.67;;;;;19.26;53.35;98678.41;4847330;28;102364;-87
2021/10/06 10:36:29;;;;;;;;;9.67;9.00;;;;;19.26;53.24;98677.56;4828368;28;109165;-87
2021/10/06 10:38:56;;;;;;;;;10.00;9.33;;;;;19.26;53.52;98678.41;4827825;28;102694;-86
2021/10/06 10:41:43;;;;;;;;;10.00;9.00;;;;;19.26;53.30;98675.66;4837011;28;102365;-87
2021/10/06 10:44:10;;;;;;;;;9.00;9.00;;;;;19.26;53.68;98686.63;4833360;28;102818;-88
2021/10/06 10:46:59;;;;;;;;;8.67;8.67;;;;;19.27;53.52;98679.22;4826027;28;104086;-87
2021/10/06 10:49:26;;;;;;;;;11.33;9.00;;;;;19.27;53.69;98688.28;4828052;28;102607;-88
2021/10/06 10:51:57;;;;;;;;;8.67;7.33;;;;;19.28;53.71;98686.34;4834413;28;102675;-87
2021/10/06 10:54:31;;;;;;;;;10.00;9.00;;;;;19.29;53.72;98691.59;4835712;28;102623;-87
2021/10/06 10:57:08;;;;;;;;;10.67;10.00;;;;;19.26;53.81;98689.38;4835948;28;108819;-88
2021/10/06 10:59:42;;;;;;;;;10.00;9.00;;;;;19.28;53.69;98691.84;4838817;28;102293;-87
2021/10/06 11:02:27;;;;;;;;;9.33;9.33;;;;;19.28;54.03;98694.56;4833528;28;102469;-87
2021/10/06 11:04:59;;;;;;;;;10.33;9.33;;;;;19.28;54.29;98692.66;4838997;28;102381;-88
2021/10/06 11:07:26;;;;;;;;;11.00;9.67;;;;;19.26;54.45;98696.75;4843688;28;104217;-87
2021/10/06 11:09:59;;;;;;;;;10.33;9.67;;;;;19.27;54.23;98693.78;4838840;28;104812;-87
2021/10/06 11:12:31;;;;;;;;;9.00;9.00;;;;;19.27;54.23;98693.78;4829018;28;102455;-87
2021/10/06 11:15:13;;;;;;;;;9.33;9.00;;;;;19.28;54.35;98695.41;4844557;28;103484;-87
2021/10/06 11:18:15;;;;;;;;;9.33;9.00;;;;;19.28;54.29;98694.56;4839988;28;109077;-87
2021/10/06 11:20:47;;;;;;;;;11.00;10.33;;;;;19.29;54.24;98693.50;4831905;28;103295;-87
2021/10/06 11:23:33;;;;;;;;;12.00;9.67;;;;;19.29;54.40;98691.59;4824153;28;102026;-87
2021/10/06 11:26:14;;;;;;;;;11.67;11.00;;;;;19.29;54.35;98688.84;4841348;28;102366;-87
2021/10/06 11:28:51;;;;;;;;;14.00;11.00;;;;;19.29;54.47;98686.09;4837175;28;108812;-87